Time;durP1;ratioP1;P1;durP2;ratioP2;P2;SDS_P1;SDS_P2;PMS_P1;PMS_P2;Temp;Humidity;BMP_temperature;BMP_pressure;BME280_temperature;BME280_humidity;BME280_pressure;Samples;Min_cycle;Max_cycle;Signal;HPM_P1;HPM_P2
2022/06/19 00:02:12;;;;;;;5.90;1.70;;;21.60;74.10;;;;;;5030779;28;20041;-53
2022/06/19 00:05:17;;;;;;;2.45;1.48;;;21.70;73.90;;;;;;5030475;28;20056;-53
2022/06/19 00:08:21;;;;;;;3.05;1.75;;;21.80;74.40;;;;;;5030119;28;20044;-52
2022/06/19 00:11:25;;;;;;;5.15;1.75;;;21.80;73.80;;;;;;5030540;28;20415;-52
2022/06/19 00:14:29;;;;;;;1.55;1.40;;;21.90;73.90;;;;;;5030625;28;20040;-51
2022/06/19 00:17:33;;;;;;;9.60;1.83;;;21.80;73.80;;;;;;5030099;28;20043;-51
2022/06/19 00:20:38;;;;;;;2.72;1.42;;;21.70;73.80;;;;;;5030443;28;20053;-51
2022/06/19 00:23:45;;;;;;;4.00;1.67;;;21.70;73.90;;;;;;5030261;28;20051;-52
2022/06/19 00:26:50;;;;;;;2.88;1.85;;;21.70;74.20;;;;;;5029732;28;20052;-51
2022/06/19 00:29:54;;;;;;;4.03;1.80;;;21.60;74.70;;;;;;5030305;28;20661;-51
2022/06/19 00:32:58;;;;;;;3.15;1.42;;;21.60;74.40;;;;;;5030312;28;20056;-51
2022/06/19 00:36:08;;;;;;;5.10;1.63;;;21.50;75.10;;;;;;5029823;28;20044;-55
2022/06/19 00:39:12;;;;;;;7.22;1.77;;;21.30;75.60;;;;;;5029772;28;20066;-51
2022/06/19 00:42:16;;;;;;;3.30;1.35;;;21.20;76.70;;;;;;5029745;28;20037;-52
2022/06/19 00:45:36;;;;;;;3.92;2.05;;;21.00;76.60;;;;;;5029907;28;20045;-52
2022/06/19 00:48:40;;;;;;;8.18;1.95;;;21.10;76.60;;;;;;5029430;28;20040;-52
2022/06/19 00:51:46;;;;;;;5.75;1.92;;;21.00;77.00;;;;;;5030025;28;20044;-52
2022/06/19 00:55:07;;;;;;;7.90;2.70;;;21.00;77.00;;;;;;5029796;28;20414;-53
2022/06/19 00:58:21;;;;;;;5.00;1.92;;;21.00;77.10;;;;;;5029278;28;20050;-54
2022/06/19 01:01:28;;;;;;;2.20;1.80;;;21.00;77.00;;;;;;5029767;28;20056;-53
2022/06/19 01:04:44;;;;;;;5.63;1.80;;;21.00;76.00;;;;;;5029859;28;20048;-51
2022/06/19 01:07:48;;;;;;;4.63;2.17;;;21.10;76.20;;;;;;5029145;28;20034;-52
2022/06/19 01:10:53;;;;;;;3.33;1.70;;;21.20;75.90;;;;;;5029829;28;20038;-51
2022/06/19 01:13:57;;;;;;;2.95;1.58;;;21.10;76.40;;;;;;5029831;28;20057;-53
2022/06/19 01:17:02;;;;;;;4.85;2.15;;;21.00;76.60;;;;;;5029793;28;20045;-51
2022/06/19 01:20:10;;;;;;;4.88;1.80;;;21.00;76.20;;;;;;5029688;28;20539;-51
2022/06/19 01:23:26;;;;;;;4.45;1.90;;;20.90;76.80;;;;;;5029977;28;20056;-51
2022/06/19 01:26:37;;;;;;;3.60;1.60;;;20.80;76.70;;;;;;5029744;28;20045;-51
2022/06/19 01:29:41;;;;;;;4.40;1.60;;;20.80;75.90;;;;;;5029426;28;20045;-55
2022/06/19 01:32:48;;;;;;;3.38;1.60;;;20.80;76.30;;;;;;5029896;28;20060;-55
2022/06/19 01:35:54;;;;;;;5.25;1.73;;;20.70;75.90;;;;;;5029385;28;20052;-53
2022/06/19 01:39:00;;;;;;;2.97;1.60;;;20.70;76.50;;;;;;5029273;28;20408;-51
2022/06/19 01:42:05;;;;;;;3.85;1.67;;;20.70;76.00;;;;;;5029955;28;20057;-51
2022/06/19 01:45:11;;;;;;;5.95;1.52;;;20.70;76.30;;;;;;5029314;28;20045;-51
2022/06/19 01:48:15;;;;;;;1.80;1.55;;;20.60;76.50;;;;;;5028717;28;20044;-51
2022/06/19 01:51:19;;;;;;;4.22;1.33;;;20.60;76.20;;;;;;5029502;28;20428;-55
2022/06/19 01:54:28;;;;;;;8.60;1.10;;;20.60;75.80;;;;;;5031785;28;20046;-55
2022/06/19 01:57:35;;;;;;;2.33;1.40;;;20.60;75.70;;;;;;5032806;28;20049;-53
2022/06/19 02:00:43;;;;;;;1.70;1.30;;;20.60;75.70;;;;;;5032813;28;20049;-52
2022/06/19 02:03:55;;;;;;;4.20;1.27;;;20.60;76.50;;;;;;5032842;28;20041;-53
2022/06/19 02:07:04;;;;;;;4.95;1.30;;;20.50;76.30;;;;;;5032545;28;20060;-51
2022/06/19 02:10:08;;;;;;;3.13;1.10;;;20.40;76.10;;;;;;5032573;28;20062;-56
2022/06/19 02:13:15;;;;;;;3.63;1.20;;;20.30;76.60;;;;;;5032441;28;20038;-54
2022/06/19 02:16:22;;;;;;;2.28;1.38;;;20.30;76.70;;;;;;5032125;28;20049;-52
2022/06/19 02:19:27;;;;;;;3.03;1.58;;;20.30;77.60;;;;;;5032480;28;20049;-54
2022/06/19 02:22:31;;;;;;;1.90;1.17;;;20.20;77.60;;;;;;5032631;28;20038;-51
2022/06/19 02:25:40;;;;;;;6.95;1.40;;;20.20;77.70;;;;;;5032276;28;20522;-52
2022/06/19 02:28:48;;;;;;;5.53;1.20;;;20.20;77.10;;;;;;5031858;28;20046;-55
2022/06/19 02:31:56;;;;;;;2.65;1.35;;;20.20;77.00;;;;;;5032568;28;20432;-52
2022/06/19 02:34:59;;;;;;;4.57;1.80;;;20.10;78.00;;;;;;5032242;28;20045;-53
2022/06/19 02:38:07;;;;;;;1.75;1.20;;;20.10;78.80;;;;;;5031069;28;20523;-52
2022/06/19 02:41:20;;;;;;;3.10;1.50;;;20.00;77.70;;;;;;5031877;28;20037;-51
2022/06/19 02:44:35;;;;;;;3.47;1.52;;;20.00;77.70;;;;;;5032349;28;20416;-53
2022/06/19 02:47:40;;;;;;;5.10;1.40;;;20.00;77.90;;;;;;5032118;28;20032;-56
2022/06/19 02:50:44;;;;;;;3.33;1.20;;;20.00;77.50;;;;;;5032100;28;20048;-53
2022/06/19 02:53:47;;;;;;;3.40;1.67;;;20.00;77.40;;;;;;5032034;28;20512;-52
2022/06/19 02:56:52;;;;;;;3.50;1.50;;;20.00;77.60;;;;;;5031840;28;20052;-51
2022/06/19 02:59:56;;;;;;;3.40;1.42;;;20.00;78.00;;;;;;5031740;28;20374;-53
2022/06/19 03:03:32;;;;;;;3.92;1.40;;;19.90;78.70;;;;;;5031936;28;20060;-51
2022/06/19 03:06:36;;;;;;;3.53;1.10;;;19.90;78.70;;;;;;5031697;28;20052;-53
2022/06/19 03:09:40;;;;;;;6.22;1.40;;;19.80;78.40;;;;;;5031457;28;20038;-53
2022/06/19 03:12:44;;;;;;;3.03;1.15;;;19.80;77.90;;;;;;5032002;28;20046;-51
2022/06/19 03:16:02;;;;;;;2.10;1.20;;;19.80;76.80;;;;;;5031463;28;20052;-51
2022/06/19 03:19:06;;;;;;;2.40;1.13;;;19.90;76.70;;;;;;5031418;28;20042;-51
2022/06/19 03:22:11;;;;;;;1.88;1.23;;;19.80;77.10;;;;;;5031322;28;20417;-54
2022/06/19 03:25:17;;;;;;;4.13;1.10;;;19.80;77.30;;;;;;5031162;28;20041;-51
2022/06/19 03:28:21;;;;;;;2.45;1.25;;;19.70;77.70;;;;;;5029830;28;20042;-53
2022/06/19 03:31:26;;;;;;;4.57;1.30;;;19.60;77.70;;;;;;5031078;28;20041;-52
2022/06/19 03:34:31;;;;;;;2.58;1.08;;;19.60;77.70;;;;;;5030943;28;20060;-51
2022/06/19 03:37:35;;;;;;;5.10;1.33;;;19.50;78.00;;;;;;5030925;28;20041;-52
2022/06/19 03:40:39;;;;;;;2.33;1.10;;;19.50;77.60;;;;;;5030884;28;20041;-51
2022/06/19 03:43:43;;;;;;;3.63;1.33;;;19.40;79.10;;;;;;5031198;28;20408;-51
2022/06/19 03:46:47;;;;;;;3.03;1.30;;;19.40;78.50;;;;;;5030745;28;20044;-52
2022/06/19 03:49:51;;;;;;;2.13;1.33;;;19.30;79.20;;;;;;5030980;28;20131;-52
2022/06/19 03:52:55;;;;;;;2.40;1.23;;;19.40;78.30;;;;;;5030978;28;20046;-53
2022/06/19 03:55:59;;;;;;;2.72;1.30;;;19.40;78.30;;;;;;5030723;28;20511;-55
2022/06/19 03:59:03;;;;;;;2.63;1.20;;;19.40;77.70;;;;;;5030756;28;20061;-51
2022/06/19 04:02:10;;;;;;;2.15;1.48;;;19.50;76.90;;;;;;5030430;28;20053;-54
2022/06/19 04:05:14;;;;;;;3.40;1.40;;;19.60;78.90;;;;;;5030621;28;20040;-51
2022/06/19 04:08:18;;;;;;;4.63;1.00;;;19.60;76.50;;;;;;5030248;28;20045;-53
2022/06/19 04:11:24;;;;;;;2.67;1.30;;;19.70;76.80;;;;;;5030287;28;20041;-51
2022/06/19 04:14:28;;;;;;;1.23;0.93;;;19.60;77.10;;;;;;5030615;28;20421;-51
2022/06/19 04:17:32;;;;;;;2.00;1.10;;;19.70;76.50;;;;;;5029986;28;20044;-55
2022/06/19 04:20:36;;;;;;;2.95;1.35;;;19.70;76.00;;;;;;5030613;28;20044;-59
2022/06/19 04:23:44;;;;;;;2.28;1.50;;;19.80;78.50;;;;;;5030751;28;20045;-52
2022/06/19 04:26:49;;;;;;;5.38;1.70;;;19.80;78.50;;;;;;5054108;22;20056;-68
2022/06/19 04:29:53;;;;;;;3.45;1.27;;;20.10;79.30;;;;;;5049877;28;20053;-68
2022/06/19 04:32:58;;;;;;;3.90;1.25;;;21.70;78.30;;;;;;5048780;28;20044;-69
2022/06/19 04:36:02;;;;;;;1.58;1.30;;;23.60;76.00;;;;;;5050234;28;20047;-68
2022/06/19 04:39:06;;;;;;;3.65;1.50;;;25.60;72.80;;;;;;5050332;28;20388;-69
2022/06/19 04:42:11;;;;;;;2.05;1.23;;;27.20;70.50;;;;;;5050428;28;20048;-69
2022/06/19 04:45:14;;;;;;;3.92;1.23;;;28.10;69.50;;;;;;5050086;28;20246;-69
2022/06/19 04:48:19;;;;;;;2.42;0.98;;;28.70;67.50;;;;;;5049824;28;20032;-69
2022/06/19 04:51:24;;;;;;;3.38;1.10;;;29.40;66.20;;;;;;5050107;28;20037;-68
2022/06/19 04:54:28;;;;;;;2.25;1.13;;;30.40;65.70;;;;;;5050317;28;20537;-69
2022/06/19 04:57:32;;;;;;;5.40;1.13;;;31.50;64.70;;;;;;5049911;28;20048;-69
2022/06/19 05:00:36;;;;;;;2.42;1.20;;;32.60;63.80;;;;;;5050112;28;20045;-69
2022/06/19 05:03:40;;;;;;;5.88;1.10;;;32.80;63.60;;;;;;5050370;28;20040;-69
2022/06/19 05:06:44;;;;;;;2.47;1.33;;;33.30;63.20;;;;;;5049632;28;20053;-69
2022/06/19 05:09:48;;;;;;;3.53;1.08;;;33.60;63.20;;;;;;5049879;28;20048;-69
2022/06/19 05:12:56;;;;;;;1.42;1.13;;;33.80;61.70;;;;;;5050214;28;20057;-68
2022/06/19 05:16:07;;;;;;;2.15;1.33;;;32.20;61.70;;;;;;5049669;28;20040;-68
2022/06/19 05:19:11;;;;;;;1.43;1.10;;;32.50;62.30;;;;;;5050037;28;20049;-69
2022/06/19 05:22:15;;;;;;;2.35;1.00;;;32.40;62.30;;;;;;5049944;28;20266;-68
2022/06/19 05:25:20;;;;;;;2.33;1.20;;;31.80;62.00;;;;;;5049773;28;20049;-69
2022/06/19 05:28:24;;;;;;;2.90;1.45;;;30.90;64.40;;;;;;5050664;28;20033;-69
2022/06/19 05:31:28;;;;;;;1.42;1.00;;;31.20;63.70;;;;;;5054257;28;20526;-69
2022/06/19 05:34:35;;;;;;;2.10;1.00;;;31.70;62.10;;;;;;5054021;28;20037;-69
2022/06/19 05:37:38;;;;;;;2.85;1.20;;;32.10;62.80;;;;;;5064248;28;20068;-69
2022/06/19 05:40:42;;;;;;;4.25;1.30;;;32.50;60.80;;;;;;5053934;28;20048;-69
2022/06/19 05:43:50;;;;;;;2.53;1.15;;;32.20;61.20;;;;;;5054263;28;20044;-69
2022/06/19 05:46:54;;;;;;;4.15;0.90;;;31.40;62.40;;;;;;5053569;28;20044;-69
2022/06/19 05:49:58;;;;;;;2.72;1.00;;;32.50;62.10;;;;;;5053678;28;20040;-69
2022/06/19 05:53:02;;;;;;;3.97;1.10;;;33.60;61.10;;;;;;5053813;28;20048;-69
2022/06/19 05:56:08;;;;;;;5.55;1.42;;;34.20;61.00;;;;;;5053527;28;20044;-69
2022/06/19 05:59:12;;;;;;;2.05;0.73;;;34.70;60.00;;;;;;5053853;28;20052;-69
2022/06/19 06:02:21;;;;;;;2.17;1.08;;;34.30;60.60;;;;;;5053717;28;20500;-69
2022/06/19 06:05:25;;;;;;;1.92;0.90;;;34.50;60.40;;;;;;5053298;28;20033;-69
2022/06/19 06:08:29;;;;;;;3.72;0.80;;;34.60;59.80;;;;;;5052936;28;20041;-69
2022/06/19 06:11:33;;;;;;;1.27;0.82;;;34.80;59.00;;;;;;5053500;28;20044;-69
2022/06/19 06:14:37;;;;;;;1.88;0.80;;;35.10;58.80;;;;;;5053408;28;20059;-69
2022/06/19 06:17:41;;;;;;;1.80;0.70;;;35.00;58.60;;;;;;5052707;28;20384;-69
2022/06/19 06:20:55;;;;;;;5.07;1.13;;;33.90;58.30;;;;;;5053111;28;20041;-69
2022/06/19 06:23:59;;;;;;;2.47;0.90;;;32.00;59.10;;;;;;5053238;28;20037;-69
2022/06/19 06:27:05;;;;;;;2.88;1.10;;;29.70;61.90;;;;;;5052433;28;20049;-69
2022/06/19 06:30:11;;;;;;;3.47;1.20;;;28.40;63.20;;;;;;5052743;28;20053;-69
2022/06/19 06:33:15;;;;;;;3.88;1.10;;;27.00;65.10;;;;;;5052519;28;20044;-69
2022/06/19 06:36:20;;;;;;;2.25;1.05;;;27.50;66.10;;;;;;5052091;28;20048;-68
2022/06/19 06:39:24;;;;;;;1.77;1.00;;;27.40;65.50;;;;;;5052168;28;20048;-68
2022/06/19 06:42:27;;;;;;;4.47;1.30;;;28.90;63.70;;;;;;5052496;28;20052;-69
2022/06/19 06:45:31;;;;;;;1.70;1.00;;;29.50;62.20;;;;;;5052582;28;20232;-69
2022/06/19 06:48:37;;;;;;;1.20;0.90;;;30.30;61.30;;;;;;5052185;28;20037;-69
2022/06/19 06:51:41;;;;;;;1.40;0.85;;;30.30;60.50;;;;;;5052365;28;20073;-69
2022/06/19 06:54:46;;;;;;;3.15;1.13;;;30.20;61.10;;;;;;5052144;28;20043;-69
2022/06/19 06:57:51;;;;;;;4.55;1.50;;;29.40;61.20;;;;;;5051849;28;20047;-69
2022/06/19 07:00:55;;;;;;;1.65;1.00;;;28.10;61.80;;;;;;5052303;28;20298;-69
2022/06/19 07:03:59;;;;;;;3.33;0.98;;;28.70;63.20;;;;;;5052447;28;20029;-69
2022/06/19 07:07:03;;;;;;;1.88;1.30;;;29.00;62.70;;;;;;5051910;28;20503;-69
2022/06/19 07:10:09;;;;;;;3.10;1.02;;;29.00;62.00;;;;;;5052078;28;20124;-70
2022/06/19 07:13:13;;;;;;;2.97;1.20;;;29.50;61.50;;;;;;5051795;28;20040;-69
2022/06/19 07:16:17;;;;;;;0.88;0.88;;;30.50;60.80;;;;;;5051713;28;20040;-69
2022/06/19 07:19:20;;;;;;;3.75;1.35;;;31.20;60.20;;;;;;5051949;28;20041;-69
2022/06/19 07:22:25;;;;;;;1.50;0.88;;;31.20;59.70;;;;;;5051772;28;20522;-70
2022/06/19 07:25:29;;;;;;;1.10;0.98;;;32.80;59.50;;;;;;5051610;28;20033;-68
2022/06/19 07:28:34;;;;;;;1.10;0.90;;;33.20;58.30;;;;;;5051779;28;20048;-69
2022/06/19 07:31:38;;;;;;;1.42;0.90;;;34.50;58.70;;;;;;5050824;28;20040;-70
2022/06/19 07:34:43;;;;;;;3.40;0.80;;;34.40;58.00;;;;;;5051795;28;20029;-69
2022/06/19 07:37:47;;;;;;;4.57;0.90;;;34.80;57.80;;;;;;5050842;28;20055;-69
2022/06/19 07:40:51;;;;;;;1.42;0.90;;;33.90;58.00;;;;;;5051351;28;20036;-70
2022/06/19 07:43:56;;;;;;;2.33;0.88;;;34.60;58.70;;;;;;5050834;28;20043;-70
2022/06/19 07:50:26;;;;;;;1.50;0.90;;;34.20;57.60;;;;;;5050954;28;20052;-70
2022/06/19 07:53:30;;;;;;;1.15;0.75;;;35.60;57.50;;;;;;5051199;28;20036;-71
2022/06/19 07:56:35;;;;;;;4.20;0.65;;;37.20;57.50;;;;;;5050909;28;20044;-70
2022/06/19 07:59:39;;;;;;;2.75;0.70;;;38.40;56.40;;;;;;5051393;28;20036;-70
2022/06/19 08:02:45;;;;;;;3.42;0.65;;;39.50;56.10;;;;;;5061679;28;20044;-70
2022/06/19 08:05:50;;;;;;;1.88;0.77;;;40.20;55.10;;;;;;5050863;28;20472;-68
2022/06/19 08:08:53;;;;;;;5.80;0.88;;;41.10;54.70;;;;;;5050162;28;20049;-67
2022/06/19 08:11:57;;;;;;;3.22;0.80;;;41.50;54.40;;;;;;5050776;28;20037;-70
2022/06/19 08:15:01;;;;;;;2.50;0.90;;;41.90;53.60;;;;;;5051024;28;20112;-70
2022/06/19 08:18:06;;;;;;;1.75;0.95;;;42.10;53.50;;;;;;5050503;28;20530;-68
2022/06/19 08:21:10;;;;;;;2.95;0.68;;;42.40;53.50;;;;;;5050835;28;20397;-67
2022/06/19 08:24:13;;;;;;;1.27;0.60;;;43.00;53.10;;;;;;5050688;28;20128;-68
2022/06/19 08:27:18;;;;;;;2.28;0.90;;;43.00;53.00;;;;;;5050362;28;20041;-67
2022/06/19 08:30:25;;;;;;;3.45;0.82;;;41.90;53.30;;;;;;5051051;28;20056;-68
2022/06/19 08:33:30;;;;;;;1.15;0.80;;;41.70;53.40;;;;;;5050865;28;20046;-70
2022/06/19 08:36:36;;;;;;;3.42;1.08;;;40.80;53.70;;;;;;5050262;28;20041;-70
2022/06/19 08:39:40;;;;;;;2.65;0.98;;;41.90;53.20;;;;;;5050486;28;20056;-70
2022/06/19 08:42:49;;;;;;;1.58;1.02;;;42.40;53.80;;;;;;5050591;28;20053;-67
2022/06/19 08:46:14;;;;;;;1.42;0.90;;;43.30;53.40;;;;;;5050492;28;20048;-68
2022/06/19 08:49:24;;;;;;;1.42;0.73;;;44.10;54.30;;;;;;5050230;28;20048;-68
2022/06/19 08:52:36;;;;;;;1.75;0.80;;;43.60;52.10;;;;;;5050342;28;20044;-67
2022/06/19 08:56:25;;;;;;;3.55;1.10;;;43.60;52.80;;;;;;5050326;28;20036;-70
2022/06/19 08:59:41;;;;;;;2.20;0.90;;;42.90;53.20;;;;;;5027815;28;20056;-70
2022/06/19 09:02:48;;;;;;;2.33;1.10;;;42.50;53.30;;;;;;5029727;28;20427;-69
2022/06/19 09:06:06;;;;;;;2.83;0.80;;;42.10;53.80;;;;;;5050479;28;20202;-70
2022/06/19 09:09:51;;;;;;;2.58;0.90;;;43.60;53.00;;;;;;5050019;28;20029;-69
2022/06/19 09:13:33;;;;;;;2.28;0.82;;;45.10;52.30;;;;;;5028513;28;20136;-70
2022/06/19 09:16:52;;;;;;;3.00;0.85;;;45.40;51.50;;;;;;5049655;28;20057;-69
2022/06/19 09:20:15;;;;;;;;;;;45.20;52.40;;;;;;5050892;28;20033;-69
2022/06/19 09:23:24;;;;;;;2.95;1.17;;;44.00;52.30;;;;;;5050313;28;19916;-70
2022/06/19 09:26:33;;;;;;;3.67;1.13;;;44.40;52.90;;;;;;5049718;28;20046;-69
2022/06/19 09:29:48;;;;;;;3.10;0.75;;;40.90;54.10;;;;;;5049586;28;20037;-70
2022/06/19 09:33:01;;;;;;;2.15;0.90;;;43.50;53.20;;;;;;5048515;28;20045;-68
2022/06/19 09:36:27;;;;;;;2.33;1.10;;;44.10;52.30;;;;;;5049688;28;20048;-67
2022/06/19 09:39:51;;;;;;;1.73;0.70;;;43.70;51.60;;;;;;5049718;28;20400;-69
2022/06/19 09:43:00;;;;;;;1.73;0.90;;;39.30;53.90;;;;;;5049956;28;20396;-69
2022/06/19 09:46:33;;;;;;;2.42;0.90;;;42.10;53.20;;;;;;5060165;28;20052;-69
2022/06/19 09:50:00;;;;;;;1.65;0.70;;;39.40;54.10;;;;;;5048636;28;20055;-68
2022/06/19 09:53:32;;;;;;;2.88;0.82;;;42.90;52.40;;;;;;5049713;28;20051;-70
2022/06/19 09:56:44;;;;;;;4.38;0.98;;;38.90;53.70;;;;;;5048835;28;20041;-69
2022/06/19 09:59:57;;;;;;;1.83;0.70;;;41.30;53.60;;;;;;5049724;28;20044;-68
2022/06/19 10:03:11;;;;;;;3.25;1.00;;;42.30;55.00;;;;;;5049553;28;20502;-70
2022/06/19 10:06:22;;;;;;;2.63;0.98;;;43.40;52.60;;;;;;5049054;28;20404;-71
2022/06/19 10:09:33;;;;;;;1.55;0.80;;;42.20;52.40;;;;;;5049704;28;20057;-70
2022/06/19 10:12:47;;;;;;;2.88;0.60;;;43.10;52.70;;;;;;5049481;28;20044;-68
2022/06/19 10:15:55;;;;;;;2.90;0.80;;;43.60;51.80;;;;;;5052536;28;20029;-70
2022/06/19 10:19:10;;;;;;;3.97;0.90;;;40.10;53.30;;;;;;5052975;28;20498;-69
2022/06/19 10:22:43;;;;;;;1.55;0.73;;;38.20;55.70;;;;;;5053182;28;20052;-69
2022/06/19 10:25:53;;;;;;;3.53;1.10;;;38.90;54.30;;;;;;5052852;28;20405;-69
2022/06/19 10:29:09;;;;;;;3.53;0.80;;;39.70;53.90;;;;;;5052811;28;20061;-69
2022/06/19 10:32:32;;;;;;;5.15;0.95;;;37.60;54.90;;;;;;5051169;28;20041;-70
2022/06/19 10:35:51;;;;;;;4.70;1.10;;;37.50;56.30;;;;;;5052701;28;20037;-69
2022/06/19 10:39:17;;;;;;;3.03;0.80;;;36.00;56.70;;;;;;5052962;28;20037;-70
2022/06/19 10:42:48;;;;;;;1.63;1.10;;;36.00;56.70;;;;;;5052822;28;20388;-70
2022/06/19 10:45:57;;;;;;;3.05;0.88;;;36.00;56.80;;;;;;5051377;28;20388;-70
2022/06/19 10:49:37;;;;;;;2.13;0.98;;;38.00;55.70;;;;;;5052501;28;20048;-69
2022/06/19 10:53:00;;;;;;;2.03;0.75;;;39.00;54.90;;;;;;5051939;28;20388;-68
2022/06/19 10:56:38;;;;;;;2.63;0.80;;;39.00;55.60;;;;;;5052370;28;20052;-71
2022/06/19 10:59:41;;;;;;;2.50;1.00;;;37.60;53.60;;;;;;5052474;28;20063;-69
2022/06/19 11:06:11;;;;;;;2.53;1.00;;;35.30;57.10;;;;;;5052040;28;20037;-70
2022/06/19 11:09:24;;;;;;;2.00;1.13;;;36.10;56.60;;;;;;5052188;28;20041;-68
2022/06/19 11:12:35;;;;;;;3.30;0.82;;;36.90;55.30;;;;;;5051898;28;20045;-69
2022/06/19 11:15:47;;;;;;;3.53;0.80;;;37.40;55.30;;;;;;5052051;28;20048;-69
2022/06/19 11:18:54;;;;;;;3.97;1.10;;;36.00;55.30;;;;;;5052069;28;20498;-68
2022/06/19 11:21:59;;;;;;;2.40;1.10;;;35.10;55.80;;;;;;5051785;28;20041;-69
2022/06/19 11:25:30;;;;;;;2.03;0.93;;;34.50;57.30;;;;;;5051875;28;20052;-69
2022/06/19 11:28:58;;;;;;;1.70;0.80;;;33.60;57.80;;;;;;5051752;28;20518;-68
2022/06/19 11:32:13;;;;;;;2.03;0.70;;;34.80;57.80;;;;;;5051600;28;20419;-69
2022/06/19 11:35:17;;;;;;;5.20;0.82;;;34.40;57.50;;;;;;5051932;28;20048;-70
2022/06/19 11:38:38;;;;;;;1.45;0.95;;;34.30;59.00;;;;;;5051356;28;20029;-70
2022/06/19 11:41:42;;;;;;;7.70;1.40;;;35.20;57.70;;;;;;5051379;28;20037;-68
2022/06/19 11:44:51;;;;;;;5.35;0.95;;;35.40;56.90;;;;;;5051668;28;20040;-69
2022/06/19 11:47:55;;;;;;;2.65;0.90;;;35.30;55.60;;;;;;5051114;28;20052;-68
2022/06/19 11:50:59;;;;;;;5.13;0.85;;;36.00;56.40;;;;;;5051453;28;20049;-69
2022/06/19 11:54:03;;;;;;;4.13;0.90;;;35.20;56.20;;;;;;5051305;28;20176;-70
2022/06/19 11:57:27;;;;;;;1.65;1.10;;;36.00;57.90;;;;;;5050794;28;20041;-69
2022/06/19 12:00:34;;;;;;;1.77;0.88;;;35.10;56.60;;;;;;5051065;28;20033;-68
2022/06/19 12:03:43;;;;;;;2.00;1.13;;;33.70;56.70;;;;;;5051316;28;20033;-70
2022/06/19 12:06:53;;;;;;;6.25;0.88;;;33.90;56.90;;;;;;5050562;28;20381;-71
2022/06/19 12:10:28;;;;;;;2.03;1.05;;;34.00;57.20;;;;;;5050903;28;20043;-70
2022/06/19 12:13:39;;;;;;;3.10;1.20;;;34.40;58.90;;;;;;5050873;28;20044;-70
2022/06/19 12:16:43;;;;;;;2.03;1.05;;;34.30;58.50;;;;;;5050873;28;20041;-70
2022/06/19 12:19:53;;;;;;;1.75;1.25;;;35.00;57.40;;;;;;5050805;28;20037;-70
2022/06/19 12:23:12;;;;;;;1.90;0.90;;;35.50;55.80;;;;;;5051014;28;20028;-70
2022/06/19 12:26:25;;;;;;;2.25;0.85;;;35.80;56.20;;;;;;5050133;28;20048;-70
2022/06/19 12:29:36;;;;;;;4.00;0.90;;;35.20;56.50;;;;;;5050712;28;20391;-70
2022/06/19 12:32:46;;;;;;;2.78;1.02;;;34.60;55.50;;;;;;5050640;28;20040;-70
2022/06/19 12:35:50;;;;;;;2.45;0.90;;;35.00;56.30;;;;;;5050607;28;20051;-69
2022/06/19 12:38:55;;;;;;;5.47;1.35;;;34.10;56.10;;;;;;5050324;28;20041;-69
2022/06/19 12:42:19;;;;;;;1.45;1.00;;;34.60;55.70;;;;;;5050417;28;20508;-68
2022/06/19 12:45:58;;;;;;;1.33;0.90;;;34.30;56.00;;;;;;5050434;28;20033;-70
2022/06/19 12:49:02;;;;;;;2.67;0.80;;;35.80;56.40;;;;;;5028741;28;20037;-70
2022/06/19 12:52:19;;;;;;;3.03;0.90;;;37.10;55.60;;;;;;5050870;28;20029;-69
2022/06/19 12:55:47;;;;;;;2.67;0.95;;;36.80;54.00;;;;;;5050483;28;20033;-69
2022/06/19 12:59:15;;;;;;;1.55;1.02;;;35.50;54.80;;;;;;5050263;28;20040;-71
2022/06/19 13:02:40;;;;;;;1.67;0.90;;;34.60;56.60;;;;;;5050395;28;20043;-69
2022/06/19 13:06:02;;;;;;;4.40;0.93;;;34.70;56.90;;;;;;5050439;28;20048;-68
2022/06/19 13:09:37;;;;;;;1.42;0.85;;;33.80;56.10;;;;;;5049980;28;20048;-68
2022/06/19 13:13:19;;;;;;;2.42;0.90;;;33.70;56.80;;;;;;5048880;28;20029;-69
2022/06/19 13:16:52;;;;;;;2.55;1.08;;;33.90;57.20;;;;;;5049773;28;20391;-69
2022/06/19 13:20:24;;;;;;;2.67;1.08;;;33.90;57.00;;;;;;5048885;28;20044;-71
2022/06/19 13:24:02;;;;;;;1.27;0.90;;;34.50;54.80;;;;;;5049335;28;20511;-69
2022/06/19 13:27:27;;;;;;;3.33;1.02;;;34.50;54.20;;;;;;5048376;28;20048;-70
2022/06/19 13:30:57;;;;;;;2.47;0.90;;;35.40;53.80;;;;;;5049772;28;20403;-70
2022/06/19 13:34:28;;;;;;;1.77;1.25;;;34.20;54.20;;;;;;5049974;28;20037;-70
2022/06/19 13:37:50;;;;;;;3.08;1.10;;;34.60;55.60;;;;;;5049499;28;20044;-70
2022/06/19 13:41:00;;;;;;;1.58;0.80;;;33.80;56.20;;;;;;5049881;28;20065;-69
2022/06/19 13:44:14;;;;;;;3.25;1.00;;;33.20;57.10;;;;;;5049509;28;20037;-68
2022/06/19 13:47:31;;;;;;;3.42;1.10;;;33.70;56.10;;;;;;5049537;28;20041;-69
2022/06/19 13:50:41;;;;;;;1.85;1.05;;;34.50;56.20;;;;;;5052891;28;20045;-69
2022/06/19 13:54:04;;;;;;;2.65;1.20;;;34.50;55.90;;;;;;5054208;28;20040;-69
2022/06/19 13:57:20;;;;;;;3.42;1.00;;;34.40;54.70;;;;;;5053377;28;20052;-69
2022/06/19 14:01:01;;;;;;;2.72;1.05;;;34.70;54.60;;;;;;5053737;28;20518;-69
2022/06/19 14:08:02;;;;;;;3.40;1.15;;;33.50;55.10;;;;;;5052884;28;20378;-69
2022/06/19 14:11:19;;;;;;;4.22;1.23;;;33.70;55.40;;;;;;5052832;28;20055;-69
2022/06/19 14:14:26;;;;;;;4.53;1.42;;;33.90;54.60;;;;;;5053332;28;20380;-69
2022/06/19 14:17:55;;;;;;;2.13;1.30;;;34.20;54.80;;;;;;5052779;28;20387;-69
2022/06/19 14:21:22;;;;;;;4.40;1.27;;;34.00;54.00;;;;;;5053133;28;20050;-69
2022/06/19 14:24:53;;;;;;;4.65;1.33;;;34.20;55.80;;;;;;5053139;28;20040;-69
2022/06/19 14:28:04;;;;;;;3.72;1.20;;;33.20;55.10;;;;;;5052846;28;20044;-69
2022/06/19 14:31:11;;;;;;;3.70;1.15;;;32.90;57.60;;;;;;5051655;28;20052;-69
2022/06/19 14:34:47;;;;;;;4.63;1.25;;;32.90;56.70;;;;;;5052658;28;20040;-68
2022/06/19 14:37:54;;;;;;;2.17;1.10;;;33.10;55.20;;;;;;5052365;28;20503;-69
2022/06/19 14:41:00;;;;;;;2.63;1.40;;;33.70;54.70;;;;;;5052833;28;20041;-69
2022/06/19 14:44:20;;;;;;;5.40;1.40;;;33.90;55.40;;;;;;5052699;28;20040;-68
2022/06/19 14:47:34;;;;;;;11.95;2.05;;;33.80;54.80;;;;;;5051636;28;20056;-68
2022/06/19 14:50:51;;;;;;;5.43;1.38;;;33.80;56.10;;;;;;5052234;28;20044;-71
2022/06/19 14:54:40;;;;;;;2.25;1.60;;;33.60;55.50;;;;;;5052431;28;20037;-69
2022/06/19 14:57:49;;;;;;;2.55;0.93;;;33.20;55.30;;;;;;5051985;28;20028;-68
2022/06/19 15:00:58;;;;;;;2.83;1.10;;;32.80;56.50;;;;;;5052177;28;20517;-68
2022/06/19 15:04:02;;;;;;;2.53;1.20;;;33.20;56.50;;;;;;5051776;28;20044;-69
2022/06/19 15:07:22;;;;;;;2.65;1.60;;;33.20;55.60;;;;;;5052241;28;20067;-69
2022/06/19 15:10:32;;;;;;;3.95;1.75;;;33.60;56.30;;;;;;5052106;28;20041;-68
2022/06/19 15:13:43;;;;;;;2.93;1.20;;;32.90;55.90;;;;;;5052252;28;20038;-68
2022/06/19 15:17:01;;;;;;;2.28;1.40;;;32.60;56.70;;;;;;5051493;28;20042;-68
2022/06/19 15:20:27;;;;;;;2.72;1.20;;;33.10;57.70;;;;;;5051674;28;20048;-68
2022/06/19 15:23:31;;;;;;;4.95;1.10;;;33.40;57.10;;;;;;5046688;28;20043;-69
2022/06/19 15:26:39;;;;;;;7.35;1.50;;;33.10;57.00;;;;;;5051244;28;20507;-69
2022/06/19 15:29:57;;;;;;;3.85;1.27;;;32.60;58.00;;;;;;5051633;28;20039;-69
2022/06/19 15:33:23;;;;;;;2.28;1.40;;;32.60;57.90;;;;;;5052395;28;20047;-68
2022/06/19 15:36:49;;;;;;;4.72;1.60;;;32.70;57.40;;;;;;5045850;28;20029;-69
2022/06/19 15:40:22;;;;;;;2.58;1.20;;;32.70;56.20;;;;;;5046835;28;20046;-67
2022/06/19 15:43:26;;;;;;;3.33;1.17;;;33.10;56.60;;;;;;5051139;28;20037;-68
2022/06/19 15:46:32;;;;;;;7.13;1.65;;;33.00;56.10;;;;;;5041374;28;20030;-68
2022/06/19 15:49:45;;;;;;;3.55;1.60;;;33.10;58.00;;;;;;5042753;28;20057;-68
2022/06/19 15:52:49;;;;;;;2.85;1.40;;;32.70;57.20;;;;;;5041196;28;20037;-69
2022/06/19 15:56:14;;;;;;;4.03;1.40;;;32.20;57.30;;;;;;5049071;28;20033;-68
2022/06/19 15:59:29;;;;;;;4.13;1.52;;;32.30;58.40;;;;;;5049714;28;20037;-68
2022/06/19 16:02:34;;;;;;;2.17;1.40;;;32.10;56.80;;;;;;5037547;28;20050;-68
2022/06/19 16:05:40;;;;;;;2.67;1.35;;;32.20;56.80;;;;;;5042165;28;20052;-69
2022/06/19 16:09:06;;;;;;;6.45;1.30;;;32.50;57.70;;;;;;5048164;28;20044;-69
2022/06/19 16:12:24;;;;;;;4.20;1.27;;;32.60;58.30;;;;;;5050625;28;20536;-68
2022/06/19 16:15:28;;;;;;;2.55;1.27;;;32.70;58.00;;;;;;5051699;28;20025;-67
2022/06/19 16:18:34;;;;;;;2.28;1.30;;;32.00;57.90;;;;;;5051651;28;20063;-68
2022/06/19 16:21:56;;;;;;;3.78;1.30;;;32.20;58.10;;;;;;5050872;28;20392;-69
2022/06/19 16:25:04;;;;;;;2.38;1.20;;;32.30;58.90;;;;;;5048772;28;20036;-68
2022/06/19 16:28:33;;;;;;;2.75;1.38;;;32.30;57.10;;;;;;5046858;28;20068;-69
2022/06/19 16:31:38;;;;;;;2.15;1.10;;;32.40;57.80;;;;;;5034056;28;20033;-68
2022/06/19 16:45:33;;;;;;;2.53;1.42;;;32.40;57.30;;;;;;5041929;28;20388;-68
2022/06/19 16:48:38;;;;;;;4.82;1.13;;;32.30;57.70;;;;;;5045984;28;20053;-68
2022/06/19 16:51:47;;;;;;;4.28;1.30;;;32.20;57.90;;;;;;5042731;28;20037;-68
2022/06/19 16:55:05;;;;;;;1.88;1.25;;;32.20;58.10;;;;;;5048757;28;20057;-68
2022/06/19 16:58:45;;;;;;;2.67;1.25;;;32.10;58.40;;;;;;5045108;28;20033;-69